Time;durP1;ratioP1;P1;durP2;ratioP2;P2;SDS_P1;SDS_P2;PMS_P1;PMS_P2;Temp;Humidity;BMP_temperature;BMP_pressure;BME280_temperature;BME280_humidity;BME280_pressure;Samples;Min_cycle;Max_cycle;Signal;HPM_P1;HPM_P2
2023/12/19 00:02:11;;;;;;;29.52;15.95;;;;;;;;;;5105349;27;20115;-63
2023/12/19 00:04:37;;;;;;;29.50;18.58;;;;;;;;;;5126896;27;20047;-63
2023/12/19 00:07:03;;;;;;;34.67;18.30;;;;;;;;;;5124199;27;20092;-63
2023/12/19 00:09:29;;;;;;;31.95;18.27;;;;;;;;;;5126826;27;20366;-64
2023/12/19 00:11:56;;;;;;;31.92;20.05;;;;;;;;;;5104848;27;20142;-64
2023/12/19 00:14:22;;;;;;;34.65;18.95;;;;;;;;;;5125892;27;20047;-64
2023/12/19 00:16:48;;;;;;;33.55;19.95;;;;;;;;;;5123936;27;20035;-64
2023/12/19 00:19:14;;;;;;;32.42;20.00;;;;;;;;;;5106234;27;20394;-63
2023/12/19 00:21:40;;;;;;;30.50;17.63;;;;;;;;;;5123268;27;20043;-64
2023/12/19 00:24:06;;;;;;;29.02;18.70;;;;;;;;;;5125455;27;20038;-64
2023/12/19 00:26:32;;;;;;;28.92;18.85;;;;;;;;;;5123917;27;20055;-64
2023/12/19 00:28:58;;;;;;;28.70;19.42;;;;;;;;;;5125542;27;20072;-63
2023/12/19 00:31:26;;;;;;;33.13;19.95;;;;;;;;;;5124090;27;20043;-64
2023/12/19 00:33:52;;;;;;;27.42;18.88;;;;;;;;;;5125489;27;20043;-63
2023/12/19 00:36:21;;;;;;;26.58;19.70;;;;;;;;;;5104193;27;20343;-62
2023/12/19 00:38:48;;;;;;;31.10;19.45;;;;;;;;;;5125177;27;20085;-63
2023/12/19 00:41:15;;;;;;;27.73;19.38;;;;;;;;;;5124153;27;20141;-63
2023/12/19 00:43:44;;;;;;;28.60;19.52;;;;;;;;;;5105740;27;20509;-64
2023/12/19 00:46:11;;;;;;;27.15;17.73;;;;;;;;;;5123841;27;20054;-63
2023/12/19 00:48:37;;;;;;;26.67;18.58;;;;;;;;;;5125240;27;20039;-64
2023/12/19 00:51:04;;;;;;;22.67;17.60;;;;;;;;;;5104250;27;20082;-64
2023/12/19 00:53:30;;;;;;;27.92;19.25;;;;;;;;;;5125576;27;20028;-63
2023/12/19 00:55:56;;;;;;;27.25;19.05;;;;;;;;;;5123436;27;20559;-63
2023/12/19 00:58:22;;;;;;;27.52;18.60;;;;;;;;;;5119109;27;20313;-63
2023/12/19 01:00:48;;;;;;;26.40;17.75;;;;;;;;;;5122982;27;20399;-63
2023/12/19 01:03:14;;;;;;;24.30;17.70;;;;;;;;;;5124273;27;20050;-63
2023/12/19 01:05:40;;;;;;;29.30;18.00;;;;;;;;;;5124820;27;20043;-64
2023/12/19 01:08:06;;;;;;;24.45;17.63;;;;;;;;;;5104732;27;20150;-63
2023/12/19 01:10:34;;;;;;;27.67;17.25;;;;;;;;;;5122358;27;20439;-63
2023/12/19 01:13:00;;;;;;;27.70;17.67;;;;;;;;;;5124899;27;20035;-63
2023/12/19 01:15:26;;;;;;;23.73;17.13;;;;;;;;;;5122439;27;20446;-64
2023/12/19 01:17:52;;;;;;;22.10;15.57;;;;;;;;;;5124298;27;20043;-64
2023/12/19 01:20:18;;;;;;;22.40;16.73;;;;;;;;;;5123483;27;20383;-64
2023/12/19 01:22:45;;;;;;;24.45;16.75;;;;;;;;;;5104281;27;20138;-63
2023/12/19 01:25:11;;;;;;;23.25;15.85;;;;;;;;;;5124121;27;20039;-63
2023/12/19 01:27:37;;;;;;;23.02;16.27;;;;;;;;;;5124440;27;20050;-63
2023/12/19 01:30:04;;;;;;;23.08;15.82;;;;;;;;;;5124888;27;20061;-63
2023/12/19 01:32:30;;;;;;;25.85;16.02;;;;;;;;;;5125698;27;20316;-63
2023/12/19 01:34:56;;;;;;;22.85;16.15;;;;;;;;;;5126529;27;20125;-63
2023/12/19 01:37:22;;;;;;;20.55;16.02;;;;;;;;;;5121942;27;20117;-62
2023/12/19 01:39:48;;;;;;;19.80;14.90;;;;;;;;;;5124443;27;20083;-62
2023/12/19 01:42:14;;;;;;;22.27;15.30;;;;;;;;;;5122804;27;20035;-63
2023/12/19 01:44:41;;;;;;;20.83;14.75;;;;;;;;;;5103354;28;20054;-63
2023/12/19 01:47:08;;;;;;;18.73;13.77;;;;;;;;;;5103252;27;20488;-63
2023/12/19 01:49:34;;;;;;;19.27;13.55;;;;;;;;;;5124401;27;20395;-64
2023/12/19 01:52:00;;;;;;;18.48;13.30;;;;;;;;;;5122016;27;20198;-63
2023/12/19 01:54:27;;;;;;;17.15;12.98;;;;;;;;;;5123657;27;20067;-64
2023/12/19 01:56:53;;;;;;;21.52;14.05;;;;;;;;;;5122946;27;20081;-62
2023/12/19 01:59:19;;;;;;;18.65;13.68;;;;;;;;;;5124095;27;20047;-63
2023/12/19 02:01:45;;;;;;;18.38;12.88;;;;;;;;;;5122723;27;20047;-63
2023/12/19 02:04:12;;;;;;;19.38;13.98;;;;;;;;;;5124419;27;20039;-63
2023/12/19 02:06:39;;;;;;;18.40;13.50;;;;;;;;;;5122399;27;20079;-64
2023/12/19 02:09:06;;;;;;;20.70;14.05;;;;;;;;;;5123591;27;20065;-64
2023/12/19 02:11:32;;;;;;;18.30;14.50;;;;;;;;;;5122521;27;20122;-64
2023/12/19 02:13:59;;;;;;;18.73;13.52;;;;;;;;;;5123361;28;20142;-63
2023/12/19 02:16:26;;;;;;;18.10;13.02;;;;;;;;;;5122303;28;20043;-63
2023/12/19 02:19:02;;;;;;;19.00;13.68;;;;;;;;;;5123278;28;20043;-63
2023/12/19 02:21:28;;;;;;;19.02;13.80;;;;;;;;;;5121430;28;20078;-63
2023/12/19 02:23:54;;;;;;;17.50;12.80;;;;;;;;;;5123371;28;20095;-64
2023/12/19 02:26:21;;;;;;;15.88;12.90;;;;;;;;;;5124147;27;20039;-63
2023/12/19 02:28:52;;;;;;;18.85;12.10;;;;;;;;;;5127183;27;20478;-63
2023/12/19 02:31:18;;;;;;;16.65;12.43;;;;;;;;;;5126323;27;20595;-63
2023/12/19 02:33:44;;;;;;;17.35;13.20;;;;;;;;;;5128401;27;20035;-63
2023/12/19 02:36:10;;;;;;;19.05;12.88;;;;;;;;;;5106758;27;20039;-65
2023/12/19 02:38:36;;;;;;;15.68;12.38;;;;;;;;;;5128075;27;20146;-64
2023/12/19 02:41:03;;;;;;;17.27;13.95;;;;;;;;;;5090825;27;20096;-65
2023/12/19 02:43:29;;;;;;;19.38;12.60;;;;;;;;;;5127498;27;20393;-65
2023/12/19 02:45:55;;;;;;;14.27;11.02;;;;;;;;;;5106855;27;22025;-65
2023/12/19 02:48:21;;;;;;;14.90;11.95;;;;;;;;;;5127623;27;20500;-64
2023/12/19 02:50:47;;;;;;;15.90;11.55;;;;;;;;;;5126830;27;20089;-64
2023/12/19 02:53:13;;;;;;;17.85;12.45;;;;;;;;;;5107605;27;20039;-65
2023/12/19 02:55:39;;;;;;;16.98;11.85;;;;;;;;;;5126833;27;20219;-65
2023/12/19 02:58:05;;;;;;;17.92;11.95;;;;;;;;;;5126542;27;20035;-64
2023/12/19 03:00:31;;;;;;;17.23;11.95;;;;;;;;;;5126550;27;20505;-64
2023/12/19 03:02:58;;;;;;;17.67;13.13;;;;;;;;;;5127095;27;20130;-62
2023/12/19 03:05:25;;;;;;;17.10;12.25;;;;;;;;;;5107602;27;20039;-63
2023/12/19 03:07:51;;;;;;;17.67;12.27;;;;;;;;;;5126560;27;20243;-64
2023/12/19 03:10:17;;;;;;;16.33;11.75;;;;;;;;;;5126453;27;20047;-63
2023/12/19 03:12:43;;;;;;;17.58;11.90;;;;;;;;;;5126486;27;20307;-63
2023/12/19 03:15:10;;;;;;;16.73;11.90;;;;;;;;;;5125418;27;20069;-63
2023/12/19 03:17:39;;;;;;;16.13;11.43;;;;;;;;;;5126450;27;20051;-63
2023/12/19 03:20:06;;;;;;;17.05;11.57;;;;;;;;;;5126232;27;20102;-64
2023/12/19 03:22:32;;;;;;;16.17;11.98;;;;;;;;;;5124913;27;20043;-63
2023/12/19 03:24:58;;;;;;;17.40;11.60;;;;;;;;;;5089286;27;20043;-63
2023/12/19 03:27:24;;;;;;;16.02;11.13;;;;;;;;;;5125567;27;20050;-62
2023/12/19 03:29:51;;;;;;;14.13;10.68;;;;;;;;;;5125604;27;20096;-63
2023/12/19 03:32:19;;;;;;;15.32;11.40;;;;;;;;;;5126305;27;20435;-63
2023/12/19 03:34:45;;;;;;;16.35;11.50;;;;;;;;;;5126964;27;20100;-65
2023/12/19 03:37:11;;;;;;;14.43;10.77;;;;;;;;;;5123820;27;20043;-64
2023/12/19 03:39:37;;;;;;;17.85;11.57;;;;;;;;;;5126474;27;20421;-63
2023/12/19 03:42:03;;;;;;;17.40;11.20;;;;;;;;;;5105860;27;20043;-63
2023/12/19 03:44:29;;;;;;;16.50;11.18;;;;;;;;;;5125611;27;20122;-63
2023/12/19 03:46:55;;;;;;;14.32;10.30;;;;;;;;;;5106320;27;20379;-64
2023/12/19 03:49:21;;;;;;;15.13;11.27;;;;;;;;;;5105925;27;20039;-62
2023/12/19 03:51:49;;;;;;;15.07;11.25;;;;;;;;;;5124570;27;20039;-62
2023/12/19 03:54:16;;;;;;;14.30;11.00;;;;;;;;;;5125947;27;20050;-63
2023/12/19 03:56:42;;;;;;;15.68;10.40;;;;;;;;;;5125063;27;20118;-62
2023/12/19 03:59:11;;;;;;;16.75;11.95;;;;;;;;;;5125788;27;20047;-62
2023/12/19 04:01:44;;;;;;;14.55;10.65;;;;;;;;;;5124791;27;20048;-62
2023/12/19 04:04:10;;;;;;;13.05;10.10;;;;;;;;;;5125850;27;20904;-64
2023/12/19 04:06:37;;;;;;;12.38;10.50;;;;;;;;;;5105125;27;20562;-63
2023/12/19 04:09:03;;;;;;;16.08;11.05;;;;;;;;;;5106737;27;20027;-62
2023/12/19 04:11:29;;;;;;;12.48;9.75;;;;;;;;;;5124847;27;20307;-63
2023/12/19 04:13:55;;;;;;;13.23;10.02;;;;;;;;;;5125789;27;20055;-62
2023/12/19 04:16:21;;;;;;;13.43;9.60;;;;;;;;;;5123813;27;20091;-63
2023/12/19 04:18:47;;;;;;;10.98;8.75;;;;;;;;;;5125422;27;20475;-63
2023/12/19 04:21:13;;;;;;;14.00;10.65;;;;;;;;;;5104600;27;20051;-62
2023/12/19 04:23:39;;;;;;;12.77;9.10;;;;;;;;;;5124498;27;20554;-63
2023/12/19 04:26:05;;;;;;;12.18;9.40;;;;;;;;;;5124182;27;20043;-62
2023/12/19 04:28:32;;;;;;;13.98;10.63;;;;;;;;;;5124739;27;20429;-63
2023/12/19 04:30:58;;;;;;;12.18;8.70;;;;;;;;;;5124361;27;20089;-63
2023/12/19 04:33:24;;;;;;;11.52;8.30;;;;;;;;;;5124917;27;20035;-63
2023/12/19 04:35:50;;;;;;;12.35;8.93;;;;;;;;;;5124027;27;20114;-63
2023/12/19 04:38:16;;;;;;;11.20;8.75;;;;;;;;;;5105510;27;20031;-64
2023/12/19 04:40:43;;;;;;;11.48;8.30;;;;;;;;;;5123190;27;20490;-64
2023/12/19 04:43:10;;;;;;;12.65;9.23;;;;;;;;;;5124266;27;20445;-64
2023/12/19 04:45:36;;;;;;;11.18;8.48;;;;;;;;;;5124404;27;20042;-63
2023/12/19 04:48:02;;;;;;;11.60;9.45;;;;;;;;;;5124626;27;20047;-64
2023/12/19 04:50:28;;;;;;;14.30;8.15;;;;;;;;;;5124058;27;20080;-62
2023/12/19 04:52:54;;;;;;;15.20;9.05;;;;;;;;;;5123274;27;20057;-63
2023/12/19 04:55:20;;;;;;;10.80;8.13;;;;;;;;;;5123777;27;20071;-63
2023/12/19 04:57:46;;;;;;;12.43;8.27;;;;;;;;;;5088414;27;20126;-63
2023/12/19 05:00:13;;;;;;;7.82;6.75;;;;;;;;;;5124713;27;20031;-63
2023/12/19 05:02:39;;;;;;;10.40;7.35;;;;;;;;;;5124391;27;20586;-61
2023/12/19 05:05:05;;;;;;;11.02;7.95;;;;;;;;;;5125056;27;20350;-64
2023/12/19 05:07:32;;;;;;;9.75;6.93;;;;;;;;;;5123034;27;20051;-62
2023/12/19 05:09:58;;;;;;;9.43;6.35;;;;;;;;;;5124486;27;20088;-63
2023/12/19 05:12:24;;;;;;;8.95;6.90;;;;;;;;;;5104103;27;20512;-63
2023/12/19 05:14:50;;;;;;;9.35;7.32;;;;;;;;;;5124064;27;20422;-63
2023/12/19 05:17:16;;;;;;;8.90;6.70;;;;;;;;;;5123218;27;20465;-63
2023/12/19 05:19:43;;;;;;;10.15;7.38;;;;;;;;;;5104231;27;20583;-63
2023/12/19 05:22:10;;;;;;;8.27;6.63;;;;;;;;;;5122668;27;20047;-63
2023/12/19 05:24:38;;;;;;;8.23;6.63;;;;;;;;;;5104477;27;20051;-63
2023/12/19 05:27:07;;;;;;;7.72;5.90;;;;;;;;;;5123119;27;20379;-64
2023/12/19 05:29:33;;;;;;;8.13;6.10;;;;;;;;;;5124216;27;20498;-64
2023/12/19 05:31:59;;;;;;;11.27;6.63;;;;;;;;;;5104392;27;20126;-63
2023/12/19 05:34:26;;;;;;;8.85;6.50;;;;;;;;;;5124603;27;20449;-63
2023/12/19 05:36:52;;;;;;;9.57;7.20;;;;;;;;;;5122793;27;20122;-63
2023/12/19 05:39:18;;;;;;;10.52;6.88;;;;;;;;;;5124359;27;20055;-62
2023/12/19 05:41:44;;;;;;;9.50;6.75;;;;;;;;;;5123008;27;20383;-62
2023/12/19 05:44:11;;;;;;;9.20;6.95;;;;;;;;;;5124109;27;20417;-63
2023/12/19 05:46:39;;;;;;;7.97;5.97;;;;;;;;;;5122890;27;20043;-63
2023/12/19 05:49:06;;;;;;;8.60;6.05;;;;;;;;;;5124664;27;20082;-63
2023/12/19 05:51:32;;;;;;;8.95;5.57;;;;;;;;;;5122727;27;20054;-62
2023/12/19 05:53:59;;;;;;;8.65;7.00;;;;;;;;;;5124333;27;20035;-62
2023/12/19 05:56:26;;;;;;;8.65;6.47;;;;;;;;;;5120923;27;20069;-62
2023/12/19 05:58:52;;;;;;;9.57;6.43;;;;;;;;;;5123625;27;20070;-62
2023/12/19 06:01:18;;;;;;;9.88;6.57;;;;;;;;;;5122359;27;20302;-63
2023/12/19 06:03:44;;;;;;;9.50;6.10;;;;;;;;;;5120817;27;20092;-63
2023/12/19 06:06:17;;;;;;;9.00;6.57;;;;;;;;;;5119591;27;20770;-64
2023/12/19 06:08:43;;;;;;;9.40;6.82;;;;;;;;;;5121295;27;20133;-63
2023/12/19 06:11:10;;;;;;;8.68;6.47;;;;;;;;;;5120936;27;20506;-62
2023/12/19 06:13:36;;;;;;;8.15;6.45;;;;;;;;;;5120748;28;20541;-63
2023/12/19 06:16:03;;;;;;;7.63;5.68;;;;;;;;;;5120197;28;20051;-63
2023/12/19 06:18:29;;;;;;;10.10;6.53;;;;;;;;;;5121200;28;20203;-63
2023/12/19 06:20:55;;;;;;;10.00;6.70;;;;;;;;;;5120363;28;20046;-63
2023/12/19 06:23:21;;;;;;;10.93;7.63;;;;;;;;;;5120959;28;20046;-63
2023/12/19 06:25:47;;;;;;;7.47;5.80;;;;;;;;;;5110926;27;20086;-63
2023/12/19 06:28:16;;;;;;;10.23;6.55;;;;;;;;;;5117064;27;20049;-63
2023/12/19 06:30:43;;;;;;;9.90;6.78;;;;;;;;;;5119675;28;20567;-64
2023/12/19 06:33:09;;;;;;;7.85;6.05;;;;;;;;;;5101653;28;20034;-63
2023/12/19 06:35:39;;;;;;;8.77;5.65;;;;;;;;;;5119169;28;20603;-63
2023/12/19 06:38:05;;;;;;;7.65;6.00;;;;;;;;;;5120727;28;20074;-63
2023/12/19 06:40:32;;;;;;;8.82;6.43;;;;;;;;;;5120094;28;20039;-63
2023/12/19 06:42:58;;;;;;;8.30;5.75;;;;;;;;;;5120548;28;20372;-64
2023/12/19 06:45:24;;;;;;;8.60;6.35;;;;;;;;;;5120145;28;20096;-63
2023/12/19 06:47:50;;;;;;;8.82;6.25;;;;;;;;;;5120496;27;20047;-63
2023/12/19 06:50:18;;;;;;;8.85;6.60;;;;;;;;;;5120625;27;20510;-62
2023/12/19 06:52:44;;;;;;;8.52;5.95;;;;;;;;;;5120419;28;20231;-62
2023/12/19 06:55:11;;;;;;;10.50;5.95;;;;;;;;;;5118478;28;20660;-62
2023/12/19 06:57:38;;;;;;;7.80;5.22;;;;;;;;;;5118725;28;20054;-62
2023/12/19 07:00:06;;;;;;;7.90;5.32;;;;;;;;;;5118915;28;20087;-62
2023/12/19 07:02:32;;;;;;;7.80;4.78;;;;;;;;;;5119496;28;20047;-63
2023/12/19 07:04:58;;;;;;;6.85;4.90;;;;;;;;;;5119649;28;20070;-62
2023/12/19 07:07:25;;;;;;;9.70;6.32;;;;;;;;;;5118953;28;20514;-63
2023/12/19 07:09:51;;;;;;;7.35;4.90;;;;;;;;;;5117166;27;20050;-63
2023/12/19 07:12:17;;;;;;;6.65;4.90;;;;;;;;;;5121523;27;20062;-63
2023/12/19 07:14:43;;;;;;;7.20;4.75;;;;;;;;;;5118897;27;20051;-62
2023/12/19 07:17:10;;;;;;;7.18;5.65;;;;;;;;;;5087392;27;20043;-63
2023/12/19 07:19:36;;;;;;;7.32;5.57;;;;;;;;;;5103634;27;20043;-62
2023/12/19 07:22:02;;;;;;;6.22;4.80;;;;;;;;;;5104338;27;20041;-63
2023/12/19 07:24:29;;;;;;;6.13;4.72;;;;;;;;;;5122009;27;20522;-63
2023/12/19 07:26:58;;;;;;;6.55;5.30;;;;;;;;;;5121737;27;20047;-62
2023/12/19 07:29:24;;;;;;;7.38;5.40;;;;;;;;;;5124168;27;20042;-63
2023/12/19 07:31:51;;;;;;;9.25;5.55;;;;;;;;;;5124217;27;20084;-62
2023/12/19 07:34:17;;;;;;;7.55;4.93;;;;;;;;;;5124653;27;20050;-62
2023/12/19 07:36:45;;;;;;;6.30;4.50;;;;;;;;;;5123408;27;20050;-63
2023/12/19 07:39:13;;;;;;;7.72;5.15;;;;;;;;;;5124263;27;20082;-63
2023/12/19 07:41:39;;;;;;;6.70;4.57;;;;;;;;;;5124933;27;20450;-63
2023/12/19 07:44:14;;;;;;;5.88;4.32;;;;;;;;;;5125813;27;20039;-63
2023/12/19 07:46:41;;;;;;;8.77;5.25;;;;;;;;;;5125085;27;20078;-64
2023/12/19 07:49:07;;;;;;;6.20;4.70;;;;;;;;;;5126092;27;20066;-64
2023/12/19 07:51:33;;;;;;;6.57;5.05;;;;;;;;;;5124960;27;20772;-63
2023/12/19 07:53:59;;;;;;;6.18;4.72;;;;;;;;;;5125969;27;20045;-63
2023/12/19 07:56:25;;;;;;;9.32;5.18;;;;;;;;;;5105932;27;20049;-63
2023/12/19 07:58:52;;;;;;;6.60;4.97;;;;;;;;;;5125877;27;20304;-63
2023/12/19 08:01:18;;;;;;;6.38;5.47;;;;;;;;;;5125308;27;20039;-62
2023/12/19 08:03:45;;;;;;;7.07;5.00;;;;;;;;;;5126035;27;20035;-63
2023/12/19 08:06:12;;;;;;;7.45;5.55;;;;;;;;;;5125195;27;20047;-63
2023/12/19 08:08:38;;;;;;;5.85;4.70;;;;;;;;;;5126248;27;20046;-63
2023/12/19 08:11:05;;;;;;;7.57;5.22;;;;;;;;;;5125509;27;20027;-63
2023/12/19 08:13:31;;;;;;;8.05;5.55;;;;;;;;;;5125277;27;20458;-63
2023/12/19 08:15:58;;;;;;;6.93;4.88;;;;;;;;;;5124405;27;20076;-64
2023/12/19 08:18:24;;;;;;;5.88;4.55;;;;;;;;;;5106639;27;20047;-64
2023/12/19 08:20:51;;;;;;;6.47;4.50;;;;;;;;;;5123726;27;20027;-63
2023/12/19 08:23:17;;;;;;;6.95;5.03;;;;;;;;;;5124304;27;20470;-63
2023/12/19 08:25:43;;;;;;;6.00;4.70;;;;;;;;;;5124477;27;20047;-63
2023/12/19 08:28:10;;;;;;;6.32;4.40;;;;;;;;;;5124873;27;20039;-64
2023/12/19 08:30:36;;;;;;;6.22;5.28;;;;;;;;;;5104654;27;20042;-63
2023/12/19 08:33:02;;;;;;;6.28;4.75;;;;;;;;;;5125261;27;20043;-62
2023/12/19 08:35:32;;;;;;;7.30;5.28;;;;;;;;;;5124191;27;20055;-64
2023/12/19 08:37:58;;;;;;;5.80;4.20;;;;;;;;;;5125244;27;20043;-62
2023/12/19 08:40:24;;;;;;;6.78;4.90;;;;;;;;;;5123907;27;20517;-64
2023/12/19 08:42:50;;;;;;;6.07;4.60;;;;;;;;;;5106020;27;20062;-62
2023/12/19 08:45:17;;;;;;;5.60;4.10;;;;;;;;;;5123594;27;20336;-63
2023/12/19 08:47:44;;;;;;;6.22;4.45;;;;;;;;;;5124566;27;20368;-63
2023/12/19 08:50:11;;;;;;;7.82;5.60;;;;;;;;;;5124884;27;20063;-63
2023/12/19 08:52:38;;;;;;;6.43;5.15;;;;;;;;;;5123110;27;20422;-63
2023/12/19 08:55:07;;;;;;;7.30;4.93;;;;;;;;;;5123716;27;20047;-63
2023/12/19 08:57:35;;;;;;;6.13;5.47;;;;;;;;;;5105290;27;20039;-63
2023/12/19 09:00:02;;;;;;;7.38;4.97;;;;;;;;;;5124404;27;20271;-63
2023/12/19 09:02:29;;;;;;;5.35;4.60;;;;;;;;;;5124665;27;20047;-63
2023/12/19 09:04:55;;;;;;;7.65;5.68;;;;;;;;;;5105178;27;20043;-63
2023/12/19 09:07:21;;;;;;;9.52;5.45;;;;;;;;;;5104624;27;20043;-63
2023/12/19 09:09:47;;;;;;;5.13;3.90;;;;;;;;;;5123807;27;20100;-63
2023/12/19 09:12:13;;;;;;;6.53;4.25;;;;;;;;;;5105160;27;20129;-62
2023/12/19 09:14:39;;;;;;;5.70;4.28;;;;;;;;;;5123089;27;20073;-63
2023/12/19 09:17:05;;;;;;;5.72;4.15;;;;;;;;;;5123552;27;20067;-64
2023/12/19 09:19:34;;;;;;;6.30;4.95;;;;;;;;;;5124286;27;20057;-63
2023/12/19 09:22:01;;;;;;;5.32;4.40;;;;;;;;;;5104096;27;20564;-63
2023/12/19 09:24:30;;;;;;;5.10;4.22;;;;;;;;;;5104574;27;20061;-63
2023/12/19 09:26:57;;;;;;;5.45;3.78;;;;;;;;;;5123824;27;20136;-63
2023/12/19 09:29:25;;;;;;;6.78;4.30;;;;;;;;;;5123916;27;20095;-63
2023/12/19 09:31:52;;;;;;;5.40;3.75;;;;;;;;;;5124075;27;20057;-63
2023/12/19 09:34:18;;;;;;;6.43;3.97;;;;;;;;;;5105089;27;20046;-63
2023/12/19 09:36:45;;;;;;;4.43;3.42;;;;;;;;;;5123507;27;20039;-64
2023/12/19 09:39:14;;;;;;;4.88;3.38;;;;;;;;;;5124802;27;20478;-64
2023/12/19 09:41:47;;;;;;;5.03;3.67;;;;;;;;;;5104385;27;20076;-63
2023/12/19 09:44:13;;;;;;;5.03;3.13;;;;;;;;;;5124170;27;20614;-63
2023/12/19 09:46:41;;;;;;;4.63;3.20;;;;;;;;;;5104213;27;20466;-64
2023/12/19 09:49:10;;;;;;;4.80;3.30;;;;;;;;;;5124726;27;20038;-63
2023/12/19 09:51:42;;;;;;;4.07;3.17;;;;;;;;;;5122953;27;20062;-63
2023/12/19 09:54:09;;;;;;;5.85;4.25;;;;;;;;;;5124015;27;20126;-63
2023/12/19 09:56:35;;;;;;;5.35;3.78;;;;;;;;;;5122766;27;20132;-62
2023/12/19 09:59:04;;;;;;;4.28;3.05;;;;;;;;;;5124035;27;20047;-64
2023/12/19 10:01:31;;;;;;;4.72;3.30;;;;;;;;;;5123186;27;20039;-63
2023/12/19 10:03:58;;;;;;;6.35;3.72;;;;;;;;;;5124248;27;20051;-63
2023/12/19 10:06:25;;;;;;;4.10;3.30;;;;;;;;;;5123061;27;20114;-64
2023/12/19 10:08:55;;;;;;;4.93;3.88;;;;;;;;;;5104552;28;20035;-63
2023/12/19 10:11:27;;;;;;;4.28;3.15;;;;;;;;;;5123461;27;20043;-63
2023/12/19 10:14:09;;;;;;;5.40;3.28;;;;;;;;;;5123029;27;20412;-63
2023/12/19 10:16:40;;;;;;;5.15;2.97;;;;;;;;;;5122551;28;20055;-64
2023/12/19 10:19:07;;;;;;;4.57;3.40;;;;;;;;;;5122988;28;20104;-63
2023/12/19 10:21:34;;;;;;;4.20;3.28;;;;;;;;;;5102787;28;20043;-63
2023/12/19 10:24:08;;;;;;;4.80;3.45;;;;;;;;;;5123791;28;20047;-64
2023/12/19 10:26:34;;;;;;;5.65;3.33;;;;;;;;;;5122052;28;20101;-63
2023/12/19 10:29:00;;;;;;;7.28;3.75;;;;;;;;;;5122393;28;20506;-62
2023/12/19 10:31:26;;;;;;;5.55;3.70;;;;;;;;;;5123324;28;20043;-63
2023/12/19 10:33:56;;;;;;;4.40;3.13;;;;;;;;;;5123795;28;20069;-63
2023/12/19 10:36:23;;;;;;;4.28;3.15;;;;;;;;;;5122590;28;20122;-62
2023/12/19 10:38:50;;;;;;;3.92;3.38;;;;;;;;;;5123532;28;20076;-62
2023/12/19 10:41:26;;;;;;;5.00;3.67;;;;;;;;;;5122657;28;20329;-62
2023/12/19 10:43:53;;;;;;;4.13;3.15;;;;;;;;;;5122534;28;20047;-63
2023/12/19 10:46:24;;;;;;;4.47;3.30;;;;;;;;;;5122926;27;20131;-62
2023/12/19 10:48:54;;;;;;;6.43;3.90;;;;;;;;;;5128153;27;20361;-63
2023/12/19 10:51:41;;;;;;;5.20;3.50;;;;;;;;;;5107065;27;20031;-63
2023/12/19 10:54:14;;;;;;;5.32;3.60;;;;;;;;;;5126851;27;20490;-63
2023/12/19 10:57:05;;;;;;;4.43;3.10;;;;;;;;;;5126252;27;20160;-63
2023/12/19 10:59:46;;;;;;;5.03;3.25;;;;;;;;;;5126535;27;20043;-63
2023/12/19 11:02:34;;;;;;;3.83;2.60;;;;;;;;;;5123375;27;21082;-62
2023/12/19 11:05:23;;;;;;;4.35;3.10;;;;;;;;;;5124824;27;20105;-62
2023/12/19 11:07:51;;;;;;;4.30;3.30;;;;;;;;;;5124981;27;20092;-62
2023/12/19 11:10:22;;;;;;;4.53;3.22;;;;;;;;;;5124188;27;20402;-63
2023/12/19 11:12:50;;;;;;;4.72;3.42;;;;;;;;;;5116289;27;20075;-64
2023/12/19 11:15:16;;;;;;;3.92;2.92;;;;;;;;;;5121693;27;20066;-63
2023/12/19 11:17:42;;;;;;;5.70;3.15;;;;;;;;;;5125064;27;20043;-62
2023/12/19 11:20:14;;;;;;;4.47;3.25;;;;;;;;;;5102712;27;20645;-63
2023/12/19 11:22:41;;;;;;;3.55;2.42;;;;;;;;;;5121143;27;20035;-63
2023/12/19 11:25:16;;;;;;;5.88;3.55;;;;;;;;;;5123573;27;20031;-62
2023/12/19 11:27:44;;;;;;;4.18;2.85;;;;;;;;;;5103860;27;20425;-63
2023/12/19 11:30:29;;;;;;;4.13;2.78;;;;;;;;;;5121745;27;20085;-63
2023/12/19 11:32:55;;;;;;;4.05;2.88;;;;;;;;;;5123321;27;20463;-63
2023/12/19 11:35:27;;;;;;;3.42;2.65;;;;;;;;;;5122302;27;20043;-63
2023/12/19 11:38:13;;;;;;;5.13;2.97;;;;;;;;;;5122508;27;20043;-64
2023/12/19 11:40:45;;;;;;;3.58;2.50;;;;;;;;;;5121278;27;20849;-64
2023/12/19 11:43:11;;;;;;;3.93;2.20;;;;;;;;;;5104117;27;20125;-63
2023/12/19 11:45:38;;;;;;;3.58;2.38;;;;;;;;;;5121942;27;20114;-63
2023/12/19 11:48:24;;;;;;;4.57;2.28;;;;;;;;;;5123595;27;20539;-63
2023/12/19 11:50:53;;;;;;;3.03;2.30;;;;;;;;;;5119925;27;20037;-62
2023/12/19 11:53:23;;;;;;;2.72;2.10;;;;;;;;;;5109021;27;20094;-63
2023/12/19 11:55:49;;;;;;;2.78;1.88;;;;;;;;;;5121628;27;20049;-61
2023/12/19 11:58:15;;;;;;;4.00;2.40;;;;;;;;;;5121463;27;20100;-63
2023/12/19 12:00:41;;;;;;;3.72;1.98;;;;;;;;;;5121503;27;20220;-63
2023/12/19 12:03:08;;;;;;;3.30;2.30;;;;;;;;;;5121995;27;20767;-63
2023/12/19 12:05:34;;;;;;;3.85;2.30;;;;;;;;;;5122991;27;20485;-64
2023/12/19 12:08:00;;;;;;;4.18;2.22;;;;;;;;;;5102152;27;20043;-63
2023/12/19 12:10:27;;;;;;;3.50;2.00;;;;;;;;;;5122286;27;20547;-63
2023/12/19 12:12:56;;;;;;;3.08;1.80;;;;;;;;;;5122137;27;20100;-63
2023/12/19 12:15:23;;;;;;;4.05;2.47;;;;;;;;;;5122153;27;20055;-63
2023/12/19 12:17:50;;;;;;;3.20;2.03;;;;;;;;;;5122134;27;20066;-63
2023/12/19 12:20:24;;;;;;;3.20;2.00;;;;;;;;;;5122429;27;20099;-63
2023/12/19 12:22:51;;;;;;;4.05;2.17;;;;;;;;;;5122088;27;20046;-63
2023/12/19 12:25:19;;;;;;;2.95;1.80;;;;;;;;;;5103275;27;20146;-63
2023/12/19 12:27:45;;;;;;;3.20;1.55;;;;;;;;;;5121413;27;20443;-62
2023/12/19 12:30:12;;;;;;;3.00;1.50;;;;;;;;;;5101843;27;20122;-63
2023/12/19 12:32:38;;;;;;;3.90;2.00;;;;;;;;;;5121471;27;20039;-63
2023/12/19 12:35:28;;;;;;;3.75;1.95;;;;;;;;;;5121970;27;20087;-62
2023/12/19 12:37:55;;;;;;;1.70;1.48;;;;;;;;;;5121201;27;20046;-63
2023/12/19 12:40:21;;;;;;;2.25;1.30;;;;;;;;;;5120105;27;20089;-63
2023/12/19 12:42:48;;;;;;;2.45;1.45;;;;;;;;;;5102154;27;20035;-63
2023/12/19 12:45:17;;;;;;;3.28;1.83;;;;;;;;;;5120998;27;20096;-63
2023/12/19 12:47:43;;;;;;;2.15;1.35;;;;;;;;;;5121415;27;20076;-63
2023/12/19 12:50:10;;;;;;;1.67;1.10;;;;;;;;;;5122126;27;20103;-63
2023/12/19 12:52:36;;;;;;;2.38;1.48;;;;;;;;;;5121384;27;20074;-63
2023/12/19 12:55:06;;;;;;;2.50;1.45;;;;;;;;;;5122835;27;20134;-62
2023/12/19 12:57:32;;;;;;;3.20;1.85;;;;;;;;;;5120572;27;20073;-63
2023/12/19 12:59:58;;;;;;;1.60;1.08;;;;;;;;;;5122153;27;20043;-63
2023/12/19 13:02:24;;;;;;;1.98;1.35;;;;;;;;;;5120974;27;20395;-63
2023/12/19 13:04:51;;;;;;;2.13;1.23;;;;;;;;;;5122000;27;20035;-63
2023/12/19 13:07:17;;;;;;;2.00;1.30;;;;;;;;;;5120447;27;20084;-63
2023/12/19 13:09:44;;;;;;;2.75;1.00;;;;;;;;;;5121177;27;20039;-63
2023/12/19 13:12:10;;;;;;;1.48;1.02;;;;;;;;;;5120814;27;21166;-63
2023/12/19 13:14:36;;;;;;;1.60;1.10;;;;;;;;;;5121245;27;20055;-62
2023/12/19 13:17:04;;;;;;;1.60;1.00;;;;;;;;;;5101320;27;20581;-63
2023/12/19 13:19:30;;;;;;;1.42;0.85;;;;;;;;;;5118700;27;20128;-63
2023/12/19 13:21:56;;;;;;;1.25;0.93;;;;;;;;;;5120625;27;20598;-63
2023/12/19 13:24:22;;;;;;;1.77;0.63;;;;;;;;;;5120712;27;20051;-63
2023/12/19 13:26:49;;;;;;;0.95;0.73;;;;;;;;;;5120668;27;20035;-63
2023/12/19 13:29:15;;;;;;;1.00;0.70;;;;;;;;;;5120658;27;20510;-63
2023/12/19 13:31:42;;;;;;;0.98;0.80;;;;;;;;;;5119842;27;20047;-63
2023/12/19 13:34:08;;;;;;;1.77;1.00;;;;;;;;;;5101066;27;20047;-63
2023/12/19 13:36:36;;;;;;;2.13;0.80;;;;;;;;;;5120225;27;20170;-63
2023/12/19 13:39:03;;;;;;;1.17;0.90;;;;;;;;;;5121089;27;20039;-64
2023/12/19 13:41:29;;;;;;;1.70;0.82;;;;;;;;;;5119705;27;20127;-63
2023/12/19 13:43:55;;;;;;;1.45;0.93;;;;;;;;;;5120527;27;20043;-63
2023/12/19 13:46:21;;;;;;;2.22;0.68;;;;;;;;;;5119743;27;20146;-63
2023/12/19 13:48:48;;;;;;;2.97;0.90;;;;;;;;;;5120189;27;20057;-64
2023/12/19 13:51:15;;;;;;;1.85;0.88;;;;;;;;;;5101290;27;20069;-62
2023/12/19 13:53:41;;;;;;;1.73;1.20;;;;;;;;;;5121108;27;20031;-63
2023/12/19 13:56:08;;;;;;;1.88;0.80;;;;;;;;;;5119342;27;20433;-64
2023/12/19 13:58:34;;;;;;;1.73;0.90;;;;;;;;;;5119724;27;20046;-64
2023/12/19 14:01:01;;;;;;;1.75;0.80;;;;;;;;;;5119678;27;20472;-63
2023/12/19 14:03:27;;;;;;;1.75;0.80;;;;;;;;;;5120016;27;20425;-64
2023/12/19 14:05:53;;;;;;;2.80;0.90;;;;;;;;;;5119518;27;20171;-63
2023/12/19 14:08:19;;;;;;;2.47;1.00;;;;;;;;;;5120598;27;20463;-63
2023/12/19 14:10:45;;;;;;;1.17;0.75;;;;;;;;;;5119140;27;20104;-62
2023/12/19 14:13:14;;;;;;;1.83;0.90;;;;;;;;;;5100815;28;20581;-63
2023/12/19 14:15:42;;;;;;;1.35;0.95;;;;;;;;;;5118981;27;20178;-63
2023/12/19 14:18:08;;;;;;;0.82;0.82;;;;;;;;;;5120003;27;20043;-63
2023/12/19 14:20:34;;;;;;;0.65;0.57;;;;;;;;;;5120407;27;20039;-63
2023/12/19 14:23:01;;;;;;;2.92;1.15;;;;;;;;;;5119757;28;20347;-63
2023/12/19 14:25:27;;;;;;;1.40;0.60;;;;;;;;;;5118782;28;20101;-64
2023/12/19 14:27:53;;;;;;;1.35;1.15;;;;;;;;;;5102681;28;20400;-62
2023/12/19 14:30:19;;;;;;;1.25;1.08;;;;;;;;;;5099213;28;20452;-63
2023/12/19 14:32:46;;;;;;;1.95;1.25;;;;;;;;;;5119035;28;20049;-62
2023/12/19 14:35:13;;;;;;;1.83;1.05;;;;;;;;;;5118868;28;20038;-63